KNIP/NIP METAR and TAF weather

Enter ICAO airport designator
Station Type Date Time Source
KNIP METAR 2020/07/10 00:53 UTC NOAA

KNIP 100053Z 36007KT 10SM SCT030 BKN150 BKN250 28/23 A2988 RMK AO2 SLP113 CB DSNT SE AND W T1 SET T02830233


Station Type Date Time Source
KNIP Decoded METAR 2020/07/10 00:53 UTC NOAA

JACKSONVILLE NAVAL AIR STN, FL, United States (KNIP) 30-14N 81-40W 8M
Jul 09, 2020 - 08:53 PM EDT / 2020.07.10 0053 UTC
Wind: from the N (360 degrees) at 8 MPH (7 KT):0
Visibility: 10 mile(s):0
Sky conditions: mostly cloudy
Weather: Cumulonimbus clouds observed
Temperature: 82.9 F (28.3 C)
Dew Point: 73.9 F (23.3 C)
Relative Humidity: 74%
Pressure (altimeter): 29.88 in. Hg (1011 hPa)
ob: KNIP 100053Z 36007KT 10SM SCT030 BKN150 BKN250 28/23 A2988 RMK AO2 SLP113 CB DSNT SE AND W T1 SET T02830233
cycle: 1

Station Type Date Time Source
KNIP TAF 2020/07/09 23:58 UTC NOAA

TAF KNIP 0923/1023 33010KT 9999 VCTS SCT030CB BKN100 BKN250 QNH2984INS
TEMPO 0923/1003 VRB20G30KT 4800 TSRA BR SCT008 BKN020CB BKN060 BKN200
FM100300 27006KT 9999 SCT050 BKN100 BKN250 QNH2988INS
FM100900 27006KT 9999 FEW040 SCT250 QNH2991INS
FM101700 31008KT 9999 VCTS SCT030CB BKN100 BKN250 QNH2990INS T26/1009Z T32/1020Z FN20061

Example: see airport list